createdAt,value
2023-05-04T00:01:53.150Z,5.83
2023-05-04T00:04:21.047Z,5.93
2023-05-04T00:06:48.215Z,5.30
2023-05-04T00:09:16.366Z,5.93
2023-05-04T00:11:43.632Z,6.03
2023-05-04T00:14:10.780Z,6.17
2023-05-04T00:16:37.878Z,5.40
2023-05-04T00:19:04.960Z,6.97
2023-05-04T00:21:32.220Z,5.50
2023-05-04T00:23:59.355Z,6.33
2023-05-04T00:26:26.824Z,6.50
2023-05-04T00:28:53.929Z,6.80
2023-05-04T00:31:21.308Z,6.53
2023-05-04T00:33:48.436Z,6.67
2023-05-04T00:36:15.792Z,6.70
2023-05-04T00:38:54.868Z,6.30
2023-05-04T00:41:22.453Z,6.57
2023-05-04T00:43:49.744Z,6.23
2023-05-04T00:46:17.512Z,6.97
2023-05-04T00:48:47.385Z,6.57
2023-05-04T00:51:17.120Z,6.67
2023-05-04T00:53:44.554Z,6.43
2023-05-04T00:56:12.710Z,7.03
2023-05-04T00:58:40.357Z,7.27
2023-05-04T01:01:07.508Z,7.13
2023-05-04T01:03:34.804Z,7.37
2023-05-04T01:06:47.440Z,7.50
2023-05-04T01:09:47.177Z,7.20
2023-05-04T01:12:56.537Z,7.10
2023-05-04T01:15:24.078Z,6.97
2023-05-04T01:17:51.309Z,6.83
2023-05-04T01:20:18.475Z,7.93
2023-05-04T01:22:45.636Z,7.23
2023-05-04T01:25:13.083Z,7.53
2023-05-04T01:27:56.486Z,7.80
2023-05-04T01:30:38.462Z,7.10
2023-05-04T01:33:06.451Z,6.90
2023-05-04T01:35:34.294Z,7.53
2023-05-04T01:38:02.400Z,7.60
2023-05-04T01:40:29.635Z,8.50
2023-05-04T01:42:56.840Z,8.40
2023-05-04T01:45:23.882Z,8.00
2023-05-04T01:47:51.249Z,7.30
2023-05-04T01:50:18.495Z,7.77
2023-05-04T01:52:46.359Z,7.87
2023-05-04T01:55:13.595Z,8.13
2023-05-04T01:57:40.702Z,8.20
2023-05-04T02:00:08.746Z,8.40
2023-05-04T02:02:53.834Z,8.20
2023-05-04T02:05:21.479Z,7.83
2023-05-04T02:07:49.216Z,8.00
2023-05-04T02:10:16.843Z,7.37
2023-05-04T02:12:44.317Z,8.20
2023-05-04T02:15:12.341Z,8.87
2023-05-04T02:17:39.896Z,7.97
2023-05-04T02:20:08.087Z,8.33
2023-05-04T02:22:36.062Z,8.30
2023-05-04T02:25:03.569Z,8.70
2023-05-04T02:27:30.946Z,8.87
2023-05-04T02:29:58.564Z,8.70
2023-05-04T02:32:26.617Z,9.50
2023-05-04T02:34:54.466Z,9.00
2023-05-04T02:37:22.309Z,8.73
2023-05-04T02:39:49.590Z,8.77
2023-05-04T02:42:17.522Z,10.03
2023-05-04T02:44:44.803Z,8.90
2023-05-04T02:47:12.391Z,8.47
2023-05-04T02:49:39.609Z,8.63
2023-05-04T02:52:06.672Z,9.00
2023-05-04T02:54:33.995Z,8.70
2023-05-04T02:57:01.252Z,9.57
2023-05-04T02:59:28.336Z,10.30
2023-05-04T03:01:55.684Z,10.17
2023-05-04T03:04:23.017Z,9.00
2023-05-04T03:06:50.036Z,8.80
2023-05-04T03:09:17.254Z,9.20
2023-05-04T03:11:44.806Z,9.47
2023-05-04T03:14:11.943Z,9.77
2023-05-04T03:16:39.131Z,10.30
2023-05-04T03:19:06.757Z,9.87
2023-05-04T03:21:33.886Z,8.97
2023-05-04T03:24:01.336Z,10.33
2023-05-04T03:26:28.480Z,9.43
2023-05-04T03:28:55.665Z,10.60
2023-05-04T03:31:22.860Z,9.37
2023-05-04T03:33:52.622Z,10.67
2023-05-04T03:36:20.648Z,11.30
2023-05-04T03:38:47.744Z,9.97
2023-05-04T03:41:15.006Z,10.07
2023-05-04T03:43:42.302Z,12.13
2023-05-04T03:46:10.038Z,11.57
2023-05-04T03:48:37.196Z,11.97
2023-05-04T03:51:06.556Z,11.80
2023-05-04T03:53:35.696Z,12.17
2023-05-04T03:56:03.463Z,10.93
2023-05-04T03:58:31.484Z,11.90
2023-05-04T04:01:03.595Z,10.90
2023-05-04T04:03:31.659Z,11.13
2023-05-04T04:05:59.194Z,12.33
2023-05-04T04:08:26.920Z,12.53
2023-05-04T04:10:53.948Z,12.40
2023-05-04T04:13:21.222Z,11.40
2023-05-04T04:15:48.482Z,10.73
2023-05-04T04:18:16.332Z,12.53
2023-05-04T04:20:43.379Z,12.47
2023-05-04T04:23:10.673Z,12.30
2023-05-04T04:25:38.111Z,12.03
2023-05-04T04:28:05.382Z,12.23
2023-05-04T04:30:32.418Z,11.30
2023-05-04T04:32:59.913Z,10.83
2023-05-04T04:35:27.617Z,11.83
2023-05-04T04:37:54.660Z,12.37
2023-05-04T04:40:22.690Z,12.10
2023-05-04T04:42:50.103Z,12.93
2023-05-04T04:45:17.547Z,12.70
2023-05-04T04:47:45.794Z,12.70
2023-05-04T04:50:13.310Z,11.77
2023-05-04T04:52:44.003Z,12.93
2023-05-04T04:55:11.440Z,12.00
2023-05-04T04:57:39.104Z,13.23
2023-05-04T05:00:09.544Z,11.73
2023-05-04T05:02:37.868Z,12.63
2023-05-04T05:05:05.694Z,13.13
2023-05-04T05:07:33.218Z,12.07
2023-05-04T05:10:00.323Z,12.07
2023-05-04T05:12:27.631Z,11.53
2023-05-04T05:14:55.111Z,12.37
2023-05-04T05:17:22.522Z,11.70
2023-05-04T05:19:50.177Z,11.20
2023-05-04T05:22:17.489Z,11.43
2023-05-04T05:24:44.553Z,10.90
2023-05-04T05:27:11.661Z,11.60
2023-05-04T05:29:39.160Z,11.17
2023-05-04T05:32:06.816Z,10.67
2023-05-04T05:34:33.969Z,12.13
2023-05-04T05:37:01.295Z,11.43
2023-05-04T05:39:28.951Z,11.63
2023-05-04T05:41:58.332Z,11.10
2023-05-04T05:44:25.432Z,11.73
2023-05-04T05:46:52.509Z,11.17
2023-05-04T05:49:19.620Z,11.23
2023-05-04T05:51:46.905Z,10.57
2023-05-04T05:54:14.091Z,9.83
2023-05-04T05:56:41.214Z,10.93
2023-05-04T05:59:08.296Z,12.20
2023-05-04T06:01:35.498Z,11.90
2023-05-04T06:04:02.740Z,11.83
2023-05-04T06:06:30.075Z,11.90
2023-05-04T06:08:57.266Z,11.40
2023-05-04T06:11:24.384Z,11.13
2023-05-04T06:13:51.433Z,11.20
2023-05-04T06:16:18.827Z,12.87
2023-05-04T06:18:46.019Z,11.63
2023-05-04T06:21:13.323Z,13.37
2023-05-04T06:23:40.751Z,12.77
2023-05-04T06:26:08.303Z,12.17
2023-05-04T06:28:35.704Z,13.10
2023-05-04T06:31:02.849Z,13.17
2023-05-04T06:33:30.177Z,12.63
2023-05-04T06:35:58.206Z,12.80
2023-05-04T06:38:25.301Z,12.30
2023-05-04T06:40:52.394Z,12.70
2023-05-04T06:43:19.453Z,13.10
2023-05-04T06:45:46.903Z,12.53
2023-05-04T06:48:14.050Z,12.53
2023-05-04T06:50:41.207Z,12.40
2023-05-04T06:53:10.644Z,12.40
2023-05-04T06:55:38.149Z,12.73
2023-05-04T06:58:05.472Z,13.27
2023-05-04T07:00:32.697Z,13.70
2023-05-04T07:02:59.747Z,13.70
2023-05-04T07:05:27.146Z,12.87
2023-05-04T07:07:54.175Z,12.30
2023-05-04T07:10:21.360Z,12.10
2023-05-04T07:12:49.519Z,12.27
2023-05-04T07:15:16.648Z,12.03
2023-05-04T07:17:43.965Z,12.73
2023-05-04T07:20:12.379Z,11.47
2023-05-04T07:22:39.411Z,12.67
2023-05-04T07:25:07.000Z,12.53
2023-05-04T07:27:36.751Z,11.80
2023-05-04T07:30:06.875Z,12.67
2023-05-04T07:32:34.147Z,13.70
2023-05-04T07:35:01.226Z,12.17
2023-05-04T07:37:28.332Z,12.43
2023-05-04T07:39:55.474Z,12.03
2023-05-04T07:42:23.632Z,12.87
2023-05-04T07:44:52.267Z,12.93
2023-05-04T07:47:19.538Z,13.50
2023-05-04T07:49:47.095Z,12.60
2023-05-04T07:52:14.120Z,12.10
2023-05-04T07:54:41.197Z,12.83
2023-05-04T07:57:08.242Z,11.67
2023-05-04T07:59:35.324Z,13.60
2023-05-04T08:02:02.480Z,12.80
2023-05-04T08:04:29.595Z,12.97
2023-05-04T08:06:56.667Z,13.03
2023-05-04T08:09:23.933Z,12.50
2023-05-04T08:11:51.018Z,11.80
2023-05-04T08:14:18.176Z,12.30
2023-05-04T08:16:45.206Z,12.40
2023-05-04T08:19:12.610Z,11.93
2023-05-04T08:21:40.543Z,11.87
2023-05-04T08:24:07.845Z,12.57
2023-05-04T08:26:37.544Z,12.03
2023-05-04T08:29:07.272Z,11.60
2023-05-04T08:31:34.690Z,11.27
2023-05-04T08:34:01.882Z,13.00
2023-05-04T08:36:29.232Z,11.83
2023-05-04T08:38:56.448Z,11.03
2023-05-04T08:41:23.631Z,11.90
2023-05-04T08:43:51.572Z,11.57
2023-05-04T08:46:18.839Z,11.53
2023-05-04T08:48:46.440Z,10.73
2023-05-04T08:51:14.663Z,10.17
2023-05-04T08:53:46.118Z,11.63
2023-05-04T08:56:14.554Z,11.73
2023-05-04T08:58:50.995Z,10.63
2023-05-04T09:01:19.655Z,10.90
2023-05-04T09:03:47.732Z,10.13
2023-05-04T09:06:15.282Z,10.80
2023-05-04T09:08:42.963Z,9.97
2023-05-04T09:11:10.136Z,10.40
2023-05-04T09:13:37.301Z,10.87
2023-05-04T09:16:06.445Z,11.30
2023-05-04T09:18:51.381Z,10.53
2023-05-04T09:21:29.334Z,10.60
2023-05-04T09:23:56.717Z,11.07
2023-05-04T09:26:30.816Z,10.30
2023-05-04T09:29:09.973Z,10.57
2023-05-04T09:31:48.129Z,9.80
2023-05-04T09:34:15.677Z,9.20
2023-05-04T09:36:42.951Z,7.93
2023-05-04T09:39:14.658Z,7.10
2023-05-04T09:41:42.334Z,7.03
2023-05-04T09:44:23.826Z,6.50
2023-05-04T09:46:55.567Z,7.27
2023-05-04T09:49:33.362Z,7.37
2023-05-04T09:52:04.970Z,7.50
2023-05-04T09:54:35.199Z,6.90
2023-05-04T09:57:23.626Z,7.43
2023-05-04T09:59:52.412Z,7.80
2023-05-04T10:02:23.194Z,7.50
2023-05-04T10:04:51.983Z,7.00
2023-05-04T10:07:20.920Z,7.47
2023-05-04T10:09:50.422Z,6.30
2023-05-04T10:12:17.979Z,6.43
2023-05-04T10:14:47.223Z,7.17
2023-05-04T10:17:49.848Z,7.13
2023-05-04T10:20:55.744Z,7.10
2023-05-04T10:23:46.626Z,7.60
2023-05-04T10:27:27.535Z,7.37
2023-05-04T10:29:55.118Z,7.27
2023-05-04T10:32:23.330Z,6.43
2023-05-04T10:34:51.838Z,6.57
2023-05-04T10:37:21.825Z,6.27
2023-05-04T10:39:56.178Z,5.97
2023-05-04T10:42:23.488Z,6.40
2023-05-04T10:44:55.293Z,6.00
2023-05-04T10:47:33.919Z,6.47
2023-05-04T10:50:21.293Z,6.00
2023-05-04T10:52:50.309Z,5.50
2023-05-04T10:55:18.339Z,6.30
2023-05-04T10:57:54.050Z,4.97
2023-05-04T11:00:21.877Z,5.33
2023-05-04T11:02:50.407Z,5.57
2023-05-04T11:05:20.626Z,5.97
2023-05-04T11:07:53.014Z,5.70
2023-05-04T11:10:25.635Z,5.00
2023-05-04T11:12:55.159Z,5.50
2023-05-04T11:15:22.533Z,4.77
2023-05-04T11:17:51.717Z,4.90
2023-05-04T11:20:36.972Z,4.13
2023-05-04T11:23:04.409Z,4.40
2023-05-04T11:25:32.352Z,3.70
2023-05-04T11:28:00.904Z,3.60
2023-05-04T11:30:35.247Z,3.10
2023-05-04T11:33:05.348Z,3.30
2023-05-04T11:35:32.551Z,3.93
2023-05-04T11:37:59.713Z,3.37
2023-05-04T11:40:27.553Z,3.80
2023-05-04T11:42:57.395Z,3.33
2023-05-04T11:45:33.856Z,2.93
2023-05-04T11:48:01.867Z,2.50
2023-05-04T11:50:29.819Z,2.80
2023-05-04T11:53:09.269Z,2.47
2023-05-04T11:55:40.478Z,2.80
2023-05-04T11:58:12.062Z,2.80
2023-05-04T12:00:44.030Z,2.37
2023-05-04T12:03:14.311Z,2.80
2023-05-04T12:05:52.489Z,2.83
2023-05-04T12:08:31.821Z,2.40
2023-05-04T12:11:25.669Z,3.13
2023-05-04T12:14:07.162Z,2.70
2023-05-04T12:16:34.498Z,2.60
2023-05-04T12:19:07.671Z,2.20
2023-05-04T12:21:36.088Z,2.40
2023-05-04T12:24:04.019Z,2.40
2023-05-04T12:26:31.324Z,2.30
2023-05-04T12:28:58.650Z,2.50
2023-05-04T12:31:26.054Z,2.50
2023-05-04T12:33:53.274Z,2.50
2023-05-04T12:36:21.328Z,2.43
2023-05-04T12:38:48.375Z,2.40
2023-05-04T12:41:15.700Z,2.10
2023-05-04T12:43:43.117Z,3.10
2023-05-04T12:46:10.531Z,2.70
2023-05-04T12:48:37.704Z,2.10
2023-05-04T12:51:05.340Z,2.33
2023-05-04T12:53:32.532Z,2.67
2023-05-04T12:56:00.806Z,2.80
2023-05-04T12:58:28.441Z,2.93
2023-05-04T13:00:56.788Z,2.80
2023-05-04T13:03:24.310Z,2.20
2023-05-04T13:05:51.625Z,2.10
2023-05-04T13:08:19.876Z,2.20
2023-05-04T13:10:47.281Z,2.53
2023-05-04T13:13:17.297Z,2.63
2023-05-04T13:15:45.121Z,2.20
2023-05-04T13:18:13.145Z,2.47
2023-05-04T13:20:40.940Z,2.40
2023-05-04T13:23:08.102Z,2.00
2023-05-04T13:25:35.564Z,2.20
2023-05-04T13:28:03.517Z,1.90
2023-05-04T13:30:31.032Z,2.33
2023-05-04T13:32:58.297Z,1.70
2023-05-04T13:35:25.824Z,2.63
2023-05-04T13:37:53.358Z,2.73
2023-05-04T13:40:20.763Z,2.37
2023-05-04T13:42:48.447Z,2.03
2023-05-04T13:45:15.674Z,2.30
2023-05-04T13:47:43.268Z,2.10
2023-05-04T13:50:10.875Z,2.73
2023-05-04T13:52:38.146Z,2.63
2023-05-04T13:55:06.196Z,2.30
2023-05-04T13:57:33.503Z,2.07
2023-05-04T14:02:37.977Z,2.37
2023-05-04T14:05:05.964Z,2.30
2023-05-04T14:07:34.464Z,2.20
2023-05-04T14:10:01.907Z,2.53
2023-05-04T14:12:29.219Z,2.20
2023-05-04T14:14:57.371Z,2.37
2023-05-04T14:17:25.301Z,2.43
2023-05-04T14:19:52.424Z,2.83
2023-05-04T14:22:19.483Z,2.20
2023-05-04T14:24:46.591Z,2.67
2023-05-04T14:27:13.620Z,2.40
2023-05-04T14:29:40.977Z,2.30
2023-05-04T14:32:08.273Z,1.83
2023-05-04T14:34:36.632Z,2.47
2023-05-04T14:37:03.697Z,2.20
2023-05-04T14:39:31.004Z,2.00
2023-05-04T14:41:58.151Z,2.23
2023-05-04T14:44:27.338Z,2.10
2023-05-04T14:46:54.383Z,2.13
2023-05-04T14:49:35.798Z,2.23
2023-05-04T14:52:04.376Z,2.00
2023-05-04T14:54:31.447Z,2.30
2023-05-04T14:57:00.003Z,2.10
2023-05-04T14:59:27.190Z,1.90
2023-05-04T15:01:55.470Z,2.17
2023-05-04T15:04:22.878Z,2.43
2023-05-04T15:06:50.522Z,2.30
2023-05-04T15:09:17.603Z,2.20
2023-05-04T15:11:44.660Z,1.80
2023-05-04T15:14:11.699Z,2.00
2023-05-04T15:16:39.077Z,2.13
2023-05-04T15:19:06.598Z,1.90
2023-05-04T15:21:33.977Z,1.87
2023-05-04T15:24:01.045Z,2.10
2023-05-04T15:26:29.594Z,2.10
2023-05-04T15:28:57.309Z,1.93
2023-05-04T15:31:24.646Z,2.00
2023-05-04T15:33:51.786Z,2.30
2023-05-04T15:36:18.991Z,2.33
2023-05-04T15:38:46.051Z,2.00
2023-05-04T15:41:14.412Z,2.20
2023-05-04T15:43:41.471Z,2.50
2023-05-04T15:46:08.691Z,2.40
2023-05-04T15:48:35.855Z,2.03
2023-05-04T15:51:03.083Z,2.37
2023-05-04T15:53:30.155Z,2.20
2023-05-04T15:55:57.371Z,2.30
2023-05-04T15:58:24.405Z,2.20
2023-05-04T16:00:52.165Z,2.10
2023-05-04T16:03:19.412Z,2.10
2023-05-04T16:05:46.713Z,2.27
2023-05-04T16:08:13.796Z,2.10
2023-05-04T16:10:40.987Z,2.20
2023-05-04T16:13:09.754Z,2.40
2023-05-04T16:15:38.668Z,2.03
2023-05-04T16:18:05.922Z,2.00
2023-05-04T16:20:33.279Z,2.10
2023-05-04T16:23:00.465Z,2.27
2023-05-04T16:25:27.691Z,1.87
2023-05-04T16:27:54.820Z,1.70
2023-05-04T16:30:22.240Z,2.27
2023-05-04T16:32:49.414Z,2.17
2023-05-04T16:35:16.553Z,1.90
2023-05-04T16:37:43.658Z,1.77
2023-05-04T16:40:15.505Z,2.20
2023-05-04T16:42:43.632Z,2.30
2023-05-04T16:45:12.114Z,2.00
2023-05-04T16:47:42.787Z,2.10
2023-05-04T16:50:14.261Z,2.33
2023-05-04T16:52:41.818Z,2.00
2023-05-04T16:55:11.853Z,2.10
2023-05-04T16:57:39.786Z,2.03
2023-05-04T17:00:08.051Z,2.10
2023-05-04T17:02:36.062Z,1.80
2023-05-04T17:05:06.770Z,1.93
2023-05-04T17:07:34.285Z,2.37
2023-05-04T17:10:01.767Z,2.30
2023-05-04T17:12:29.211Z,2.10
2023-05-04T17:14:56.459Z,2.33
2023-05-04T17:17:23.634Z,2.10
2023-05-04T17:19:50.751Z,2.40
2023-05-04T17:22:18.195Z,2.30
2023-05-04T17:24:45.883Z,2.30
2023-05-04T17:27:13.301Z,2.13
2023-05-04T17:29:41.246Z,2.27
2023-05-04T17:32:08.811Z,2.07
2023-05-04T17:34:36.220Z,2.30
2023-05-04T17:37:03.586Z,2.50
2023-05-04T17:39:31.753Z,1.90
2023-05-04T17:41:59.288Z,2.30
2023-05-04T17:44:28.249Z,2.73
2023-05-04T17:46:55.738Z,2.20
2023-05-04T17:49:22.873Z,2.17
2023-05-04T17:51:50.053Z,1.90
2023-05-04T17:54:17.303Z,2.33
2023-05-04T17:56:44.448Z,2.40
2023-05-04T17:59:11.716Z,2.00
2023-05-04T18:01:39.116Z,2.40
2023-05-04T18:04:06.205Z,2.40
2023-05-04T18:06:33.462Z,2.40
2023-05-04T18:09:01.060Z,2.30
2023-05-04T18:11:28.351Z,2.03
2023-05-04T18:13:56.686Z,2.57
2023-05-04T18:16:24.743Z,2.40
2023-05-04T18:18:52.436Z,2.27
2023-05-04T18:21:19.638Z,2.20
2023-05-04T18:23:46.944Z,2.17
2023-05-04T18:26:22.756Z,2.50
2023-05-04T18:28:50.217Z,2.63
2023-05-04T18:31:17.669Z,2.70
2023-05-04T18:33:45.338Z,2.60
2023-05-04T18:36:12.565Z,2.50
2023-05-04T18:38:39.728Z,2.47
2023-05-04T18:41:07.212Z,2.60
2023-05-04T18:43:34.371Z,2.70
2023-05-04T18:46:10.639Z,2.60
2023-05-04T18:48:38.114Z,2.80
2023-05-04T18:51:05.205Z,2.20
2023-05-04T18:53:32.390Z,2.80
2023-05-04T18:56:17.555Z,2.33
2023-05-04T18:58:44.738Z,2.60
2023-05-04T19:01:11.921Z,2.43
2023-05-04T19:03:39.136Z,2.83
2023-05-04T19:06:06.509Z,3.10
2023-05-04T19:08:34.108Z,2.40
2023-05-04T19:11:03.198Z,2.60
2023-05-04T19:13:31.317Z,2.47
2023-05-04T19:15:58.469Z,2.60
2023-05-04T19:18:25.678Z,2.33
2023-05-04T19:20:52.916Z,2.60
2023-05-04T19:23:20.521Z,2.60
2023-05-04T19:25:47.784Z,2.60
2023-05-04T19:28:15.257Z,2.77
2023-05-04T19:30:42.332Z,2.97
2023-05-04T19:33:09.506Z,2.77
2023-05-04T19:35:37.362Z,3.07
2023-05-04T19:38:06.738Z,2.90
2023-05-04T19:40:34.611Z,2.77
2023-05-04T19:43:01.817Z,2.60
2023-05-04T19:45:28.868Z,2.30
2023-05-04T19:47:56.676Z,3.17
2023-05-04T19:50:23.937Z,2.63
2023-05-04T19:52:51.859Z,2.43
2023-05-04T19:55:19.031Z,4.50
2023-05-04T19:57:47.849Z,3.63
2023-05-04T20:00:17.227Z,2.73
2023-05-04T20:02:44.617Z,3.23
2023-05-04T20:05:11.963Z,2.70
2023-05-04T20:07:39.409Z,3.07
2023-05-04T20:10:08.512Z,3.33
2023-05-04T20:12:36.232Z,3.20
2023-05-04T20:15:04.027Z,3.17
2023-05-04T20:17:31.682Z,3.10
2023-05-04T20:19:59.334Z,3.60
2023-05-04T20:22:27.029Z,3.23
2023-05-04T20:24:55.129Z,3.47
2023-05-04T20:27:23.310Z,3.00
2023-05-04T20:29:50.871Z,3.03
2023-05-04T20:32:18.373Z,2.43
2023-05-04T20:34:45.790Z,3.10
2023-05-04T20:37:13.019Z,3.20
2023-05-04T20:39:40.414Z,3.50
2023-05-04T20:42:08.338Z,3.10
2023-05-04T20:44:35.420Z,3.20
2023-05-04T20:47:02.734Z,2.80
2023-05-04T20:49:29.823Z,3.70
2023-05-04T20:51:57.133Z,3.53
2023-05-04T20:54:24.286Z,3.23
2023-05-04T20:56:51.569Z,3.03
2023-05-04T20:59:18.673Z,3.50
2023-05-04T21:01:45.932Z,3.40
2023-05-04T21:04:14.943Z,3.33
2023-05-04T21:06:42.379Z,3.13
2023-05-04T21:09:10.330Z,3.10
2023-05-04T21:11:37.767Z,3.50
2023-05-04T21:14:05.225Z,3.00
2023-05-04T21:16:32.595Z,2.90
2023-05-04T21:18:59.839Z,2.73
2023-05-04T21:21:26.903Z,2.90
2023-05-04T21:23:54.100Z,2.70
2023-05-04T21:26:22.130Z,3.27
2023-05-04T21:28:50.561Z,3.27
2023-05-04T21:31:17.846Z,3.30
2023-05-04T21:33:44.957Z,3.03
2023-05-04T21:36:15.588Z,2.67
2023-05-04T21:38:42.915Z,3.40
2023-05-04T21:41:14.609Z,3.50
2023-05-04T21:43:42.731Z,3.60
2023-05-04T21:46:11.667Z,2.60
2023-05-04T21:48:39.688Z,2.80
2023-05-04T21:51:06.798Z,2.90
2023-05-04T21:53:34.166Z,3.23
2023-05-04T21:56:08.673Z,3.57
2023-05-04T21:58:38.051Z,3.00
2023-05-04T22:01:05.803Z,3.20
2023-05-04T22:03:32.990Z,3.07
2023-05-04T22:06:00.498Z,3.33
2023-05-04T22:08:28.553Z,3.23
2023-05-04T22:10:57.080Z,3.00
2023-05-04T22:13:24.402Z,3.50
2023-05-04T22:15:51.655Z,3.10
2023-05-04T22:18:19.141Z,3.03
2023-05-04T22:20:46.751Z,3.00
2023-05-04T22:23:14.333Z,2.60
2023-05-04T22:25:41.438Z,3.30
2023-05-04T22:28:08.535Z,3.00
2023-05-04T22:30:35.875Z,2.97
2023-05-04T22:33:03.372Z,3.83
2023-05-04T22:35:31.716Z,3.90
2023-05-04T22:37:58.936Z,4.03
2023-05-04T22:40:26.158Z,3.93
2023-05-04T22:42:53.278Z,3.87
2023-05-04T22:45:20.448Z,4.90
2023-05-04T22:47:47.690Z,5.53
2023-05-04T22:50:15.007Z,4.23
2023-05-04T22:52:42.265Z,4.40
2023-05-04T22:55:09.761Z,4.47
2023-05-04T22:57:36.917Z,4.13
2023-05-04T23:00:07.738Z,4.03
2023-05-04T23:02:35.982Z,4.53
2023-05-04T23:05:04.073Z,4.33
2023-05-04T23:07:31.208Z,4.10
2023-05-04T23:09:58.364Z,3.83
2023-05-04T23:12:27.083Z,4.07
2023-05-04T23:14:54.984Z,3.83
2023-05-04T23:17:22.340Z,3.77
2023-05-04T23:19:49.551Z,4.47
2023-05-04T23:22:17.034Z,4.13
2023-05-04T23:24:44.326Z,4.93
2023-05-04T23:27:11.584Z,5.30
2023-05-04T23:29:38.904Z,4.47
2023-05-04T23:32:06.547Z,4.37
2023-05-04T23:34:33.759Z,3.60
2023-05-04T23:37:01.185Z,3.67
2023-05-04T23:39:28.302Z,4.40
2023-05-04T23:41:55.402Z,4.60
2023-05-04T23:44:22.682Z,3.87
2023-05-04T23:46:49.931Z,4.10
2023-05-04T23:49:17.005Z,4.90
2023-05-04T23:51:44.287Z,4.20
2023-05-04T23:54:11.407Z,5.27
2023-05-04T23:56:38.554Z,5.67
2023-05-04T23:59:05.738Z,4.87
